ADDS METAR Data INFO
IDs: Format: Raw Decoded Include TAF

Data at: 0642 UTC 23 Feb 2018

KSMN 230556Z AUTO 00000KT 10SM SCT055 OVC090 M04/M07 A2998 RMK AO2 SLP194 60000 T10441072 10000 21044 53017 FZRANO
KSMN 230456Z AUTO 04005KT 10SM BKN060 OVC075 M04/M07 A2996 RMK AO2 SLP187 T10391067 FZRANO
KSMN 230356Z AUTO 27004KT 10SM OVC055 M03/M06 A2995 RMK AO2 SNE26 SLP187 P0000 T10331061 FZRANO
KSMN 230306Z AUTO 11009KT 9SM -SN FEW005 SCT017 OVC048 M04/M06 A2993 RMK AO2 P0000 FZRANO
KSMN 230256Z AUTO 13006KT 6SM -SN BR SCT005 BKN017 OVC038 M04/M06 A2993 RMK AO2 SNB00 SLP182 P0000 60000 T10391061 53018 FZRANO
KSMN 230254Z AUTO 14006KT 2 1/2SM -SN BR BKN005 BKN017 OVC038 M04/M06 A2993 RMK AO2 SNB00 CIG 004V010 P0000 FZRANO
KSMN 230251Z AUTO 11008KT 1SM -SN BR BKN005 BKN010 OVC027 M04/M06 A2993 RMK AO2 SNB00 CIG 004V007 P0000 FZRANO
KSMN 230240Z AUTO 23010KT 1/2SM SN FZFG BKN005 BKN010 OVC040 M04/M06 A2993 RMK AO2 SNB00 CIG 004V008 P0000 FZRANO
KSMN 230230Z AUTO 23012KT 3/4SM -SN BR BKN008 BKN040 OVC050 M03/M06 A2992 RMK AO2 SNB00 CIG 005V012 P0000 FZRANO
KSMN 230226Z AUTO 25008KT 1SM -SN BR SCT008 BKN037 OVC050 M03/M05 A2993 RMK AO2 SNB00 P0000 FZRANO
KSMN 230223Z AUTO 25008KT 1 3/4SM -SN BR FEW010 SCT037 OVC047 M03/M06 A2992 RMK AO2 SNB00 P0000 FZRANO
KSMN 230156Z AUTO 22012KT 10SM FEW050 OVC065 M02/M07 A2990 RMK AO2 SLP170 T10171072 FZRANO
KSMN 222356Z AUTO 12010KT 10SM BKN070 OVC090 00/M10 A2987 RMK AO2 SLP156 T00001100 10017 21011 56008 FZRANO
KSMN 222256Z AUTO 00000KT 10SM OVC080 00/M11 A2987 RMK AO2 SLP158 T00001106 FZRANO
KSMN 222156Z AUTO 00000KT 10SM SCT070 BKN080 M01/M09 A2988 RMK AO2 SLP161 T10061094 FZRANO
KSMN 222056Z AUTO 22003KT 10SM FEW046 OVC060 01/M10 A2990 RMK AO2 SLP163 T00061100 58019 FZRANO
KSMN 221956Z AUTO 20003KT 10SM SCT039 BKN050 01/M09 A2992 RMK AO2 SLP170 T00061094 FZRANO
KSMN 221856Z AUTO 00000KT 10SM BKN120 00/M09 A2994 RMK AO2 SLP182 T00001094 FZRANO
KSMN 221756Z AUTO 00000KT 10SM FEW012 M01/M07 A2996 RMK AO2 SLP187 60000 T10111067 11011 21078 51001 FZRANO
KSMN 221656Z AUTO 00000KT 10SM CLR M03/M08 A2996 RMK AO2 SLP191 T10281078 FZRANO
KSMN 221637Z AUTO 00000KT 10SM FEW007 SCT049 BKN080 M04/M07 A2996 RMK AO2 FZRANO
KSMN 221556Z AUTO 00000KT 9SM FEW043 OVC075 M06/M08 A2996 RMK AO2 SNE40 SLP195 P0000 T10561078 FZRANO
KSMN 221520Z AUTO 00000KT 3SM -SN BR SCT038 BKN048 OVC070 M07/M08 A2996 RMK AO2 P0000 FZRANO
KSMN 221509Z AUTO 00000KT 2 1/2SM -SN BR SCT036 BKN046 OVC055 M07/M08 A2996 RMK AO2 P0000 FZRANO
KSMN 221456Z AUTO 00000KT 3SM -SN BR OVC050 M07/M09 A2995 RMK AO2 SLP193 P0000 60000 T10671089 53002 FZRANO
KSMN 221454Z AUTO 00000KT 3SM -SN BR SCT044 OVC050 M07/M09 A2995 RMK AO2 P0000 FZRANO
KSMN 221446Z AUTO 00000KT 2 1/2SM -SN BR BKN044 OVC055 M07/M09 A2995 RMK AO2 P0000 FZRANO
KSMN 221356Z AUTO 00000KT 4SM -SN BR OVC055 M07/M09 A2994 RMK AO2 SLP192 P0000 T10721089 FZRANO
KSMN 221256Z AUTO 00000KT 9SM -SN BKN060 OVC075 M07/M09 A2995 RMK AO2 SNB35 SLP193 P0000 T10721089 FZRANO
KSMN 221156Z AUTO 00000KT 10SM SCT047 OVC060 M07/M09 A2995 RMK AO2 SLP192 60000 T10721094 11061 21072 56008 FZRANO
KSMN 221056Z AUTO 00000KT 10SM OVC070 M07/M09 A2996 RMK AO2 SLP195 T10721094 FZRANO
KSMN 220956Z AUTO 00000KT 10SM BKN070 BKN090 OVC120 M07/M09 A2997 RMK AO2 SLP197 T10721094 FZRANO
KSMN 220856Z AUTO 00000KT 10SM FEW070 OVC090 M07/M09 A2998 RMK AO2 SNE43 SLP204 P0000 60000 T10671094 56009 FZRANO
KSMN 220756Z AUTO 00000KT 9SM -SN FEW055 OVC090 M06/M09 A2999 RMK AO2 SLP205 P0000 T10611089 FZRANO
KSMN 220656Z AUTO 00000KT 7SM -SN SCT075 OVC095 M07/M09 A3000 RMK AO2 SNB19 SLP212 P0000 T10671089 410331122 FZRANO TSNO
KSMN 220556Z AUTO 00000KT 10SM BKN070 OVC090 M06/M09 A3001 RMK AO2 SNE20 SLP215 P0000 60000 T10611094 11044 21067 56006 FZRANO
KSMN 220456Z AUTO 00000KT 9SM -SN FEW060 OVC085 M06/M09 A3001 RMK AO2 SLP220 P0000 T10611094 FZRANO
KSMN 220356Z AUTO 14004KT 7SM -SN FEW040 BKN050 OVC090 M06/M09 A3002 RMK AO2 SLP224 P0000 T10561094 FZRANO
KSMN 212356Z AUTO 00000KT 10SM OVC080 M04/M11 A3005 RMK AO2 SLP234 60000 T10441111 11033 21072 56012 FZRANO
KSMN 212256Z AUTO 00000KT 10SM BKN070 M04/M11 A3005 RMK AO2 SLP236 T10391111 FZRANO
KSMN 212156Z AUTO 34004KT 10SM SCT060 OVC070 M04/M12 A3007 RMK AO2 SLP240 T10441117 FZRANO
KSMN 212056Z AUTO 32003KT 10SM OVC065 M06/M11 A3009 RMK AO2 SNE20 SLP250 P0000 60000 T10561111 56014 FZRANO
KSMN 211956Z AUTO 01003KT 4SM -SN OVC032 M05/M11 A3011 RMK AO2 SNB26 SLP258 P0000 T10501111 FZRANO
KSMN 211945Z AUTO 34003KT 2 1/2SM -SN FEW028 BKN034 OVC045 M06/M11 A3011 RMK AO2 VIS 2V3 SNB26 P0000 FZRANO
KSMN 211856Z AUTO 30003KT 10SM BKN050 OVC060 M07/M12 A3013 RMK AO2 SLP269 T10671122 FZRANO